sensor_id;sensor_type;location;lat;lon;timestamp;temperature;humidity
29577;DHT22;16509;53.862;10.672;2023-07-29T00:01:05;16.70;99.90
29577;DHT22;16509;53.862;10.672;2023-07-29T00:03:30;17.20;99.90
29577;DHT22;16509;53.862;10.672;2023-07-29T00:05:57;20.10;99.90
29577;DHT22;16509;53.862;10.672;2023-07-29T00:08:23;17.30;99.90
29577;DHT22;16509;53.862;10.672;2023-07-29T00:10:48;16.70;99.90
29577;DHT22;16509;53.862;10.672;2023-07-29T00:13:14;16.80;99.90
29577;DHT22;16509;53.862;10.672;2023-07-29T00:15:39;16.80;99.90
29577;DHT22;16509;53.862;10.672;2023-07-29T00:18:05;16.90;99.90
29577;DHT22;16509;53.862;10.672;2023-07-29T00:20:30;16.80;99.90
29577;DHT22;16509;53.862;10.672;2023-07-29T00:22:56;16.90;99.90
29577;DHT22;16509;53.862;10.672;2023-07-29T00:25:23;16.90;99.90
29577;DHT22;16509;53.862;10.672;2023-07-29T00:27:49;17.00;99.90
29577;DHT22;16509;53.862;10.672;2023-07-29T00:30:14;17.40;99.90
29577;DHT22;16509;53.862;10.672;2023-07-29T00:32:40;17.00;99.90
29577;DHT22;16509;53.862;10.672;2023-07-29T00:35:06;17.80;99.90
29577;DHT22;16509;53.862;10.672;2023-07-29T00:37:31;17.00;99.90
29577;DHT22;16509;53.862;10.672;2023-07-29T00:39:57;19.50;99.90
29577;DHT22;16509;53.862;10.672;2023-07-29T00:42:24;17.00;99.90
29577;DHT22;16509;53.862;10.672;2023-07-29T00:44:49;17.20;99.90
29577;DHT22;16509;53.862;10.672;2023-07-29T00:47:15;16.90;99.90
29577;DHT22;16509;53.862;10.672;2023-07-29T00:49:42;17.40;99.90
29577;DHT22;16509;53.862;10.672;2023-07-29T00:52:08;16.90;99.90
29577;DHT22;16509;53.862;10.672;2023-07-29T00:54:36;16.90;99.90
29577;DHT22;16509;53.862;10.672;2023-07-29T00:57:02;16.80;99.90
29577;DHT22;16509;53.862;10.672;2023-07-29T00:59:28;16.80;99.90
29577;DHT22;16509;53.862;10.672;2023-07-29T01:01:55;17.40;99.90
29577;DHT22;16509;53.862;10.672;2023-07-29T01:04:21;16.80;99.90
29577;DHT22;16509;53.862;10.672;2023-07-29T01:10:03;16.80;99.90
29577;DHT22;16509;53.862;10.672;2023-07-29T01:12:51;16.90;99.90
29577;DHT22;16509;53.862;10.672;2023-07-29T01:15:24;16.90;99.90
29577;DHT22;16509;53.862;10.672;2023-07-29T01:18:05;16.90;99.90
29577;DHT22;16509;53.862;10.672;2023-07-29T01:20:33;16.80;99.90
29577;DHT22;16509;53.862;10.672;2023-07-29T01:22:59;16.80;99.90
29577;DHT22;16509;53.862;10.672;2023-07-29T01:25:25;16.70;99.90
29577;DHT22;16509;53.862;10.672;2023-07-29T01:27:53;16.70;99.90
29577;DHT22;16509;53.862;10.672;2023-07-29T01:30:28;16.60;99.90
29577;DHT22;16509;53.862;10.672;2023-07-29T01:35:48;17.60;99.90
29577;DHT22;16509;53.862;10.672;2023-07-29T01:38:23;16.40;99.90
29577;DHT22;16509;53.862;10.672;2023-07-29T01:40:51;18.30;99.90
29577;DHT22;16509;53.862;10.672;2023-07-29T01:43:17;16.50;99.90
29577;DHT22;16509;53.862;10.672;2023-07-29T01:45:49;18.00;99.90
29577;DHT22;16509;53.862;10.672;2023-07-29T01:48:14;16.40;99.90
29577;DHT22;16509;53.862;10.672;2023-07-29T01:50:40;16.40;99.90
29577;DHT22;16509;53.862;10.672;2023-07-29T01:53:05;16.30;99.90
29577;DHT22;16509;53.862;10.672;2023-07-29T01:55:31;17.30;99.90
29577;DHT22;16509;53.862;10.672;2023-07-29T01:57:57;16.40;99.90
29577;DHT22;16509;53.862;10.672;2023-07-29T02:00:23;16.40;99.90
29577;DHT22;16509;53.862;10.672;2023-07-29T02:02:49;16.70;99.90
29577;DHT22;16509;53.862;10.672;2023-07-29T02:05:14;16.40;99.90
29577;DHT22;16509;53.862;10.672;2023-07-29T02:07:40;16.40;99.90
29577;DHT22;16509;53.862;10.672;2023-07-29T02:10:06;16.60;99.90
29577;DHT22;16509;53.862;10.672;2023-07-29T02:12:32;16.40;99.90
29577;DHT22;16509;53.862;10.672;2023-07-29T02:14:57;17.90;99.90
29577;DHT22;16509;53.862;10.672;2023-07-29T02:17:23;17.80;99.90
29577;DHT22;16509;53.862;10.672;2023-07-29T02:19:48;16.30;99.90
29577;DHT22;16509;53.862;10.672;2023-07-29T02:22:15;18.00;99.90
29577;DHT22;16509;53.862;10.672;2023-07-29T02:24:41;19.30;99.90
29577;DHT22;16509;53.862;10.672;2023-07-29T02:27:07;16.60;99.90
29577;DHT22;16509;53.862;10.672;2023-07-29T02:29:32;16.60;99.90
29577;DHT22;16509;53.862;10.672;2023-07-29T02:31:59;16.60;99.90
29577;DHT22;16509;53.862;10.672;2023-07-29T02:34:24;18.40;99.90
29577;DHT22;16509;53.862;10.672;2023-07-29T02:36:50;17.60;99.90
29577;DHT22;16509;53.862;10.672;2023-07-29T02:39:15;16.70;99.90
29577;DHT22;16509;53.862;10.672;2023-07-29T02:41:41;16.80;99.90
29577;DHT22;16509;53.862;10.672;2023-07-29T02:44:06;16.90;99.90
29577;DHT22;16509;53.862;10.672;2023-07-29T02:46:32;16.80;99.90
29577;DHT22;16509;53.862;10.672;2023-07-29T02:48:58;17.40;99.90
29577;DHT22;16509;53.862;10.672;2023-07-29T02:53:49;16.90;99.90
29577;DHT22;16509;53.862;10.672;2023-07-29T02:56:15;17.90;99.90
29577;DHT22;16509;53.862;10.672;2023-07-29T02:58:40;19.10;99.90
29577;DHT22;16509;53.862;10.672;2023-07-29T03:01:06;17.00;99.90
29577;DHT22;16509;53.862;10.672;2023-07-29T03:03:32;20.40;99.90
29577;DHT22;16509;53.862;10.672;2023-07-29T03:06:08;17.00;99.90
29577;DHT22;16509;53.862;10.672;2023-07-29T03:08:35;17.00;99.90
29577;DHT22;16509;53.862;10.672;2023-07-29T03:11:12;18.60;99.90
29577;DHT22;16509;53.862;10.672;2023-07-29T03:13:37;17.00;99.90
29577;DHT22;16509;53.862;10.672;2023-07-29T03:16:11;17.00;99.90
29577;DHT22;16509;53.862;10.672;2023-07-29T03:18:37;17.00;99.90
29577;DHT22;16509;53.862;10.672;2023-07-29T03:21:03;19.30;99.90
29577;DHT22;16509;53.862;10.672;2023-07-29T03:23:29;18.40;99.90
29577;DHT22;16509;53.862;10.672;2023-07-29T03:25:59;17.10;99.90
29577;DHT22;16509;53.862;10.672;2023-07-29T03:28:26;19.10;99.90
29577;DHT22;16509;53.862;10.672;2023-07-29T03:30:56;17.00;99.90
29577;DHT22;16509;53.862;10.672;2023-07-29T03:33:22;19.50;99.90
29577;DHT22;16509;53.862;10.672;2023-07-29T03:35:48;18.80;99.90
29577;DHT22;16509;53.862;10.672;2023-07-29T03:38:14;17.00;99.90
29577;DHT22;16509;53.862;10.672;2023-07-29T03:40:40;17.10;99.90
29577;DHT22;16509;53.862;10.672;2023-07-29T03:43:06;17.00;99.90
29577;DHT22;16509;53.862;10.672;2023-07-29T03:45:33;17.00;99.90
29577;DHT22;16509;53.862;10.672;2023-07-29T03:47:58;17.00;99.90
29577;DHT22;16509;53.862;10.672;2023-07-29T03:50:24;17.00;99.90
29577;DHT22;16509;53.862;10.672;2023-07-29T03:52:50;19.50;99.90
29577;DHT22;16509;53.862;10.672;2023-07-29T03:55:16;17.80;99.90
29577;DHT22;16509;53.862;10.672;2023-07-29T03:57:41;17.00;99.90
29577;DHT22;16509;53.862;10.672;2023-07-29T04:00:07;17.00;99.90
29577;DHT22;16509;53.862;10.672;2023-07-29T04:02:34;17.00;99.90
29577;DHT22;16509;53.862;10.672;2023-07-29T04:05:03;18.30;99.90
29577;DHT22;16509;53.862;10.672;2023-07-29T04:07:28;17.10;99.90
29577;DHT22;16509;53.862;10.672;2023-07-29T04:09:54;17.90;99.90
29577;DHT22;16509;53.862;10.672;2023-07-29T04:12:20;18.60;99.90
29577;DHT22;16509;53.862;10.672;2023-07-29T04:14:47;17.20;99.90
29577;DHT22;16509;53.862;10.672;2023-07-29T04:17:12;17.20;99.90
29577;DHT22;16509;53.862;10.672;2023-07-29T04:19:38;17.20;99.90
29577;DHT22;16509;53.862;10.672;2023-07-29T04:22:04;17.20;99.90
29577;DHT22;16509;53.862;10.672;2023-07-29T04:24:30;17.30;99.90
29577;DHT22;16509;53.862;10.672;2023-07-29T04:26:55;17.60;99.90
29577;DHT22;16509;53.862;10.672;2023-07-29T04:29:21;17.30;99.90
29577;DHT22;16509;53.862;10.672;2023-07-29T04:31:48;17.30;99.90
29577;DHT22;16509;53.862;10.672;2023-07-29T04:34:14;17.30;99.90
29577;DHT22;16509;53.862;10.672;2023-07-29T04:36:39;17.30;99.90
29577;DHT22;16509;53.862;10.672;2023-07-29T04:39:05;18.30;99.90
29577;DHT22;16509;53.862;10.672;2023-07-29T04:41:30;18.50;99.90
29577;DHT22;16509;53.862;10.672;2023-07-29T04:43:56;17.40;99.90
29577;DHT22;16509;53.862;10.672;2023-07-29T04:46:22;17.40;99.90
29577;DHT22;16509;53.862;10.672;2023-07-29T04:48:47;17.40;99.90
29577;DHT22;16509;53.862;10.672;2023-07-29T04:51:13;17.50;99.90
29577;DHT22;16509;53.862;10.672;2023-07-29T04:53:38;17.50;99.90
29577;DHT22;16509;53.862;10.672;2023-07-29T04:56:04;19.20;99.90
29577;DHT22;16509;53.862;10.672;2023-07-29T04:58:30;17.50;99.90
29577;DHT22;16509;53.862;10.672;2023-07-29T05:00:56;19.50;99.90
29577;DHT22;16509;53.862;10.672;2023-07-29T05:03:21;17.80;99.90
29577;DHT22;16509;53.862;10.672;2023-07-29T05:05:47;19.00;99.90
29577;DHT22;16509;53.862;10.672;2023-07-29T05:08:12;20.40;99.90
29577;DHT22;16509;53.862;10.672;2023-07-29T05:10:38;17.60;99.90
29577;DHT22;16509;53.862;10.672;2023-07-29T05:13:04;17.70;99.90
29577;DHT22;16509;53.862;10.672;2023-07-29T05:15:29;17.70;99.90
29577;DHT22;16509;53.862;10.672;2023-07-29T05:17:55;19.30;99.90
29577;DHT22;16509;53.862;10.672;2023-07-29T05:20:21;17.80;99.90
29577;DHT22;16509;53.862;10.672;2023-07-29T05:22:47;20.10;99.90
29577;DHT22;16509;53.862;10.672;2023-07-29T05:25:12;20.20;99.90
29577;DHT22;16509;53.862;10.672;2023-07-29T05:27:38;17.90;99.90
29577;DHT22;16509;53.862;10.672;2023-07-29T05:30:03;18.00;99.90
29577;DHT22;16509;53.862;10.672;2023-07-29T05:32:29;18.00;99.90
29577;DHT22;16509;53.862;10.672;2023-07-29T05:34:55;20.00;99.90
29577;DHT22;16509;53.862;10.672;2023-07-29T05:37:20;18.10;99.90
29577;DHT22;16509;53.862;10.672;2023-07-29T05:39:46;19.50;99.90
29577;DHT22;16509;53.862;10.672;2023-07-29T05:42:11;18.20;99.90
29577;DHT22;16509;53.862;10.672;2023-07-29T05:44:37;18.40;99.90
29577;DHT22;16509;53.862;10.672;2023-07-29T05:47:03;18.10;99.90
29577;DHT22;16509;53.862;10.672;2023-07-29T05:49:28;18.20;99.90
29577;DHT22;16509;53.862;10.672;2023-07-29T05:51:54;18.00;99.90
29577;DHT22;16509;53.862;10.672;2023-07-29T05:54:20;18.10;99.90
29577;DHT22;16509;53.862;10.672;2023-07-29T05:56:45;19.60;99.90
29577;DHT22;16509;53.862;10.672;2023-07-29T05:59:11;20.70;99.90
29577;DHT22;16509;53.862;10.672;2023-07-29T06:01:36;18.10;99.90
29577;DHT22;16509;53.862;10.672;2023-07-29T06:04:02;18.10;99.90
29577;DHT22;16509;53.862;10.672;2023-07-29T06:06:27;18.20;99.90
29577;DHT22;16509;53.862;10.672;2023-07-29T06:08:53;18.20;99.90
29577;DHT22;16509;53.862;10.672;2023-07-29T06:11:18;18.20;99.90
29577;DHT22;16509;53.862;10.672;2023-07-29T06:13:44;18.30;99.90
29577;DHT22;16509;53.862;10.672;2023-07-29T06:16:10;18.30;99.90
29577;DHT22;16509;53.862;10.672;2023-07-29T06:18:35;18.30;99.90
29577;DHT22;16509;53.862;10.672;2023-07-29T06:21:01;18.70;99.90
29577;DHT22;16509;53.862;10.672;2023-07-29T06:23:26;18.50;99.90
29577;DHT22;16509;53.862;10.672;2023-07-29T06:25:52;18.60;99.90
29577;DHT22;16509;53.862;10.672;2023-07-29T06:28:17;18.60;99.90
29577;DHT22;16509;53.862;10.672;2023-07-29T06:30:43;18.70;99.90
29577;DHT22;16509;53.862;10.672;2023-07-29T06:33:08;18.70;99.90
29577;DHT22;16509;53.862;10.672;2023-07-29T06:35:34;18.70;99.90
29577;DHT22;16509;53.862;10.672;2023-07-29T06:38:00;18.70;99.90
29577;DHT22;16509;53.862;10.672;2023-07-29T06:40:25;18.70;99.90
29577;DHT22;16509;53.862;10.672;2023-07-29T06:42:51;18.80;99.90
29577;DHT22;16509;53.862;10.672;2023-07-29T06:45:17;22.30;99.90
29577;DHT22;16509;53.862;10.672;2023-07-29T06:47:42;18.90;99.90
29577;DHT22;16509;53.862;10.672;2023-07-29T06:50:08;19.00;99.90
29577;DHT22;16509;53.862;10.672;2023-07-29T06:52:34;19.10;99.90
29577;DHT22;16509;53.862;10.672;2023-07-29T06:54:59;19.20;99.90
29577;DHT22;16509;53.862;10.672;2023-07-29T06:57:25;19.70;99.90
29577;DHT22;16509;53.862;10.672;2023-07-29T06:59:50;22.20;99.90
29577;DHT22;16509;53.862;10.672;2023-07-29T07:02:16;21.40;99.90
29577;DHT22;16509;53.862;10.672;2023-07-29T07:04:41;21.70;99.90
29577;DHT22;16509;53.862;10.672;2023-07-29T07:07:07;19.90;99.90
29577;DHT22;16509;53.862;10.672;2023-07-29T07:09:33;19.90;99.90
29577;DHT22;16509;53.862;10.672;2023-07-29T07:14:24;19.90;99.90
29577;DHT22;16509;53.862;10.672;2023-07-29T07:16:51;22.00;99.90
29577;DHT22;16509;53.862;10.672;2023-07-29T07:19:16;19.90;99.90
29577;DHT22;16509;53.862;10.672;2023-07-29T07:26:34;19.70;99.90
29577;DHT22;16509;53.862;10.672;2023-07-29T07:28:59;21.50;99.90
29577;DHT22;16509;53.862;10.672;2023-07-29T07:31:25;19.80;99.90
29577;DHT22;16509;53.862;10.672;2023-07-29T07:33:50;20.00;99.90
29577;DHT22;16509;53.862;10.672;2023-07-29T07:36:16;19.80;99.90
29577;DHT22;16509;53.862;10.672;2023-07-29T07:38:41;20.00;99.90
29577;DHT22;16509;53.862;10.672;2023-07-29T07:41:07;20.70;99.90
29577;DHT22;16509;53.862;10.672;2023-07-29T07:43:32;20.10;99.90
29577;DHT22;16509;53.862;10.672;2023-07-29T07:46:00;22.20;99.90
29577;DHT22;16509;53.862;10.672;2023-07-29T07:48:26;20.40;99.90
29577;DHT22;16509;53.862;10.672;2023-07-29T07:50:52;23.20;99.90
29577;DHT22;16509;53.862;10.672;2023-07-29T07:55:45;20.50;99.90
29577;DHT22;16509;53.862;10.672;2023-07-29T08:03:03;20.40;99.90
29577;DHT22;16509;53.862;10.672;2023-07-29T08:05:28;20.40;99.90
29577;DHT22;16509;53.862;10.672;2023-07-29T08:07:54;20.40;99.90
29577;DHT22;16509;53.862;10.672;2023-07-29T08:10:20;21.50;99.90
29577;DHT22;16509;53.862;10.672;2023-07-29T08:12:45;21.40;99.90
29577;DHT22;16509;53.862;10.672;2023-07-29T08:15:11;20.10;99.90
29577;DHT22;16509;53.862;10.672;2023-07-29T08:20:03;20.00;99.90
29577;DHT22;16509;53.862;10.672;2023-07-29T08:22:28;19.90;99.90
29577;DHT22;16509;53.862;10.672;2023-07-29T08:24:54;19.90;99.90
29577;DHT22;16509;53.862;10.672;2023-07-29T08:27:19;19.90;99.90
29577;DHT22;16509;53.862;10.672;2023-07-29T08:32:11;20.00;99.90
29577;DHT22;16509;53.862;10.672;2023-07-29T08:34:36;20.10;99.90
29577;DHT22;16509;53.862;10.672;2023-07-29T08:37:02;21.20;99.90
29577;DHT22;16509;53.862;10.672;2023-07-29T08:39:27;20.40;99.90
29577;DHT22;16509;53.862;10.672;2023-07-29T08:44:26;20.50;99.90
29577;DHT22;16509;53.862;10.672;2023-07-29T08:46:56;20.40;99.90
29577;DHT22;16509;53.862;10.672;2023-07-29T08:49:23;20.40;99.90
29577;DHT22;16509;53.862;10.672;2023-07-29T08:51:49;22.20;99.90
29577;DHT22;16509;53.862;10.672;2023-07-29T08:54:15;20.20;99.90
29577;DHT22;16509;53.862;10.672;2023-07-29T08:56:42;20.20;99.90
29577;DHT22;16509;53.862;10.672;2023-07-29T08:59:08;21.20;99.90
29577;DHT22;16509;53.862;10.672;2023-07-29T09:01:34;20.90;99.90
29577;DHT22;16509;53.862;10.672;2023-07-29T09:03:59;20.40;99.90
29577;DHT22;16509;53.862;10.672;2023-07-29T09:06:25;20.10;99.90
29577;DHT22;16509;53.862;10.672;2023-07-29T09:08:54;19.70;99.90
29577;DHT22;16509;53.862;10.672;2023-07-29T09:11:21;20.10;99.90
29577;DHT22;16509;53.862;10.672;2023-07-29T09:13:47;19.70;99.90
29577;DHT22;16509;53.862;10.672;2023-07-29T09:16:13;19.50;99.90
29577;DHT22;16509;53.862;10.672;2023-07-29T09:18:39;19.50;99.90
29577;DHT22;16509;53.862;10.672;2023-07-29T09:21:04;19.60;99.90
29577;DHT22;16509;53.862;10.672;2023-07-29T09:23:41;20.40;99.90
29577;DHT22;16509;53.862;10.672;2023-07-29T09:26:07;20.90;99.90
29577;DHT22;16509;53.862;10.672;2023-07-29T09:28:34;19.90;99.90
29577;DHT22;16509;53.862;10.672;2023-07-29T09:31:00;21.70;99.90
29577;DHT22;16509;53.862;10.672;2023-07-29T09:33:26;20.10;99.90
29577;DHT22;16509;53.862;10.672;2023-07-29T09:35:52;20.10;99.90
29577;DHT22;16509;53.862;10.672;2023-07-29T09:38:17;20.60;99.90
29577;DHT22;16509;53.862;10.672;2023-07-29T09:40:43;21.40;99.90
29577;DHT22;16509;53.862;10.672;2023-07-29T09:43:10;21.00;99.90
29577;DHT22;16509;53.862;10.672;2023-07-29T09:45:37;21.90;99.90
29577;DHT22;16509;53.862;10.672;2023-07-29T09:48:04;20.60;99.90
29577;DHT22;16509;53.862;10.672;2023-07-29T09:50:35;20.20;99.90
29577;DHT22;16509;53.862;10.672;2023-07-29T09:53:02;20.20;99.90
29577;DHT22;16509;53.862;10.672;2023-07-29T09:55:28;22.60;99.90
29577;DHT22;16509;53.862;10.672;2023-07-29T09:57:56;20.20;99.90
29577;DHT22;16509;53.862;10.672;2023-07-29T10:00:23;20.20;99.90
29577;DHT22;16509;53.862;10.672;2023-07-29T10:02:48;21.40;99.90
29577;DHT22;16509;53.862;10.672;2023-07-29T10:05:15;20.90;99.90
29577;DHT22;16509;53.862;10.672;2023-07-29T10:07:42;20.80;99.90
29577;DHT22;16509;53.862;10.672;2023-07-29T10:10:08;23.10;99.90
29577;DHT22;16509;53.862;10.672;2023-07-29T10:12:34;21.30;99.90
29577;DHT22;16509;53.862;10.672;2023-07-29T10:15:03;23.50;99.90
29577;DHT22;16509;53.862;10.672;2023-07-29T10:17:29;21.80;99.90
29577;DHT22;16509;53.862;10.672;2023-07-29T10:19:56;21.90;99.90
29577;DHT22;16509;53.862;10.672;2023-07-29T10:22:28;22.10;99.90
29577;DHT22;16509;53.862;10.672;2023-07-29T10:24:58;22.10;99.90
29577;DHT22;16509;53.862;10.672;2023-07-29T10:27:25;22.20;99.90
29577;DHT22;16509;53.862;10.672;2023-07-29T10:29:53;21.80;99.90
29577;DHT22;16509;53.862;10.672;2023-07-29T10:32:26;21.90;99.90
29577;DHT22;16509;53.862;10.672;2023-07-29T10:34:52;22.00;99.90
29577;DHT22;16509;53.862;10.672;2023-07-29T10:37:18;22.00;99.90
29577;DHT22;16509;53.862;10.672;2023-07-29T10:39:53;22.10;99.90
29577;DHT22;16509;53.862;10.672;2023-07-29T10:42:19;22.20;99.90
29577;DHT22;16509;53.862;10.672;2023-07-29T10:44:52;22.30;99.90
29577;DHT22;16509;53.862;10.672;2023-07-29T10:47:19;22.40;99.90
29577;DHT22;16509;53.862;10.672;2023-07-29T10:49:48;23.70;99.90
29577;DHT22;16509;53.862;10.672;2023-07-29T10:52:15;22.60;99.90
29577;DHT22;16509;53.862;10.672;2023-07-29T10:54:46;23.20;99.90
29577;DHT22;16509;53.862;10.672;2023-07-29T10:57:13;22.50;99.90
29577;DHT22;16509;53.862;10.672;2023-07-29T10:59:39;22.50;99.90
29577;DHT22;16509;53.862;10.672;2023-07-29T11:02:15;22.40;99.90
29577;DHT22;16509;53.862;10.672;2023-07-29T11:04:50;24.00;99.90
29577;DHT22;16509;53.862;10.672;2023-07-29T11:20:18;22.90;99.90
29577;DHT22;16509;53.862;10.672;2023-07-29T11:22:45;23.00;99.90
29577;DHT22;16509;53.862;10.672;2023-07-29T11:25:13;23.00;99.90
29577;DHT22;16509;53.862;10.672;2023-07-29T11:27:38;23.00;99.90
29577;DHT22;16509;53.862;10.672;2023-07-29T11:30:06;23.00;99.90
29577;DHT22;16509;53.862;10.672;2023-07-29T11:32:32;22.80;99.90
29577;DHT22;16509;53.862;10.672;2023-07-29T11:35:06;23.40;99.90
29577;DHT22;16509;53.862;10.672;2023-07-29T11:37:33;22.80;99.90
29577;DHT22;16509;53.862;10.672;2023-07-29T11:40:00;22.80;99.90
29577;DHT22;16509;53.862;10.672;2023-07-29T11:42:26;22.90;99.90
29577;DHT22;16509;53.862;10.672;2023-07-29T11:44:53;23.00;99.90
29577;DHT22;16509;53.862;10.672;2023-07-29T11:47:21;23.20;99.90
29577;DHT22;16509;53.862;10.672;2023-07-29T11:49:47;23.50;99.90
29577;DHT22;16509;53.862;10.672;2023-07-29T11:52:12;24.10;99.90
29577;DHT22;16509;53.862;10.672;2023-07-29T11:54:38;23.70;99.90
29577;DHT22;16509;53.862;10.672;2023-07-29T11:57:08;22.80;99.90
29577;DHT22;16509;53.862;10.672;2023-07-29T11:59:35;24.00;99.90
29577;DHT22;16509;53.862;10.672;2023-07-29T12:02:03;23.10;99.90
29577;DHT22;16509;53.862;10.672;2023-07-29T12:04:30;22.70;99.90
29577;DHT22;16509;53.862;10.672;2023-07-29T12:06:56;22.70;99.90
29577;DHT22;16509;53.862;10.672;2023-07-29T12:09:23;22.80;99.90
29577;DHT22;16509;53.862;10.672;2023-07-29T12:11:48;22.90;99.90
29577;DHT22;16509;53.862;10.672;2023-07-29T12:14:16;22.90;99.90
29577;DHT22;16509;53.862;10.672;2023-07-29T12:16:48;23.00;99.90
29577;DHT22;16509;53.862;10.672;2023-07-29T12:19:14;23.60;99.90
29577;DHT22;16509;53.862;10.672;2023-07-29T12:21:41;22.80;99.90
29577;DHT22;16509;53.862;10.672;2023-07-29T12:24:07;22.80;99.90
29577;DHT22;16509;53.862;10.672;2023-07-29T12:26:33;22.80;99.90
29577;DHT22;16509;53.862;10.672;2023-07-29T12:28:59;23.10;99.90
29577;DHT22;16509;53.862;10.672;2023-07-29T12:31:31;24.40;99.90
29577;DHT22;16509;53.862;10.672;2023-07-29T12:33:57;23.40;99.90
29577;DHT22;16509;53.862;10.672;2023-07-29T12:36:28;23.50;99.90
29577;DHT22;16509;53.862;10.672;2023-07-29T12:39:05;24.30;99.90
29577;DHT22;16509;53.862;10.672;2023-07-29T12:41:30;23.90;99.90
29577;DHT22;16509;53.862;10.672;2023-07-29T12:43:56;24.30;99.90
29577;DHT22;16509;53.862;10.672;2023-07-29T12:46:21;23.60;99.90
29577;DHT22;16509;53.862;10.672;2023-07-29T12:48:47;23.40;99.90
29577;DHT22;16509;53.862;10.672;2023-07-29T12:51:12;23.50;99.90
29577;DHT22;16509;53.862;10.672;2023-07-29T12:53:38;23.70;99.90
29577;DHT22;16509;53.862;10.672;2023-07-29T12:56:05;24.00;99.90
29577;DHT22;16509;53.862;10.672;2023-07-29T12:58:31;24.20;99.90
29577;DHT22;16509;53.862;10.672;2023-07-29T13:00:56;24.30;99.90
29577;DHT22;16509;53.862;10.672;2023-07-29T13:03:22;24.60;99.90
29577;DHT22;16509;53.862;10.672;2023-07-29T13:05:47;25.10;99.90
29577;DHT22;16509;53.862;10.672;2023-07-29T13:08:13;25.10;99.90
29577;DHT22;16509;53.862;10.672;2023-07-29T13:10:38;25.00;99.90
29577;DHT22;16509;53.862;10.672;2023-07-29T13:13:04;25.20;99.90
29577;DHT22;16509;53.862;10.672;2023-07-29T13:15:30;26.60;99.90
29577;DHT22;16509;53.862;10.672;2023-07-29T13:17:55;24.80;99.90
29577;DHT22;16509;53.862;10.672;2023-07-29T13:20:21;24.40;99.90
29577;DHT22;16509;53.862;10.672;2023-07-29T13:22:46;24.20;99.90
29577;DHT22;16509;53.862;10.672;2023-07-29T13:25:12;24.30;99.90
29577;DHT22;16509;53.862;10.672;2023-07-29T13:27:37;24.20;99.90
29577;DHT22;16509;53.862;10.672;2023-07-29T13:30:04;24.20;99.90
29577;DHT22;16509;53.862;10.672;2023-07-29T13:32:29;24.20;99.90
29577;DHT22;16509;53.862;10.672;2023-07-29T13:34:55;24.10;99.90
29577;DHT22;16509;53.862;10.672;2023-07-29T13:37:20;24.10;99.90
29577;DHT22;16509;53.862;10.672;2023-07-29T13:39:46;23.90;99.90
29577;DHT22;16509;53.862;10.672;2023-07-29T13:42:11;24.20;99.90
29577;DHT22;16509;53.862;10.672;2023-07-29T13:44:37;24.40;99.90
29577;DHT22;16509;53.862;10.672;2023-07-29T13:47:02;24.40;99.90
29577;DHT22;16509;53.862;10.672;2023-07-29T13:49:28;24.50;99.90
29577;DHT22;16509;53.862;10.672;2023-07-29T13:51:53;24.60;99.90
29577;DHT22;16509;53.862;10.672;2023-07-29T13:54:19;24.50;99.90
29577;DHT22;16509;53.862;10.672;2023-07-29T13:56:44;24.30;99.90
29577;DHT22;16509;53.862;10.672;2023-07-29T13:59:10;24.20;99.90
29577;DHT22;16509;53.862;10.672;2023-07-29T14:01:35;24.20;99.90
29577;DHT22;16509;53.862;10.672;2023-07-29T14:04:01;24.20;99.90
29577;DHT22;16509;53.862;10.672;2023-07-29T14:06:26;27.30;99.90
29577;DHT22;16509;53.862;10.672;2023-07-29T14:08:52;24.20;99.90
29577;DHT22;16509;53.862;10.672;2023-07-29T14:11:17;24.50;99.90
29577;DHT22;16509;53.862;10.672;2023-07-29T14:13:43;24.20;99.90
29577;DHT22;16509;53.862;10.672;2023-07-29T14:16:08;24.30;99.90
29577;DHT22;16509;53.862;10.672;2023-07-29T14:18:34;24.60;99.90
29577;DHT22;16509;53.862;10.672;2023-07-29T14:20:59;24.00;99.90
29577;DHT22;16509;53.862;10.672;2023-07-29T14:23:25;24.00;99.90
29577;DHT22;16509;53.862;10.672;2023-07-29T14:25:50;24.10;99.90
29577;DHT22;16509;53.862;10.672;2023-07-29T14:28:16;24.00;99.90
29577;DHT22;16509;53.862;10.672;2023-07-29T14:30:41;24.10;99.90
29577;DHT22;16509;53.862;10.672;2023-07-29T14:33:07;23.90;99.90
29577;DHT22;16509;53.862;10.672;2023-07-29T14:35:33;24.60;99.90
29577;DHT22;16509;53.862;10.672;2023-07-29T14:37:59;24.00;99.90
29577;DHT22;16509;53.862;10.672;2023-07-29T14:40:24;25.10;99.90
29577;DHT22;16509;53.862;10.672;2023-07-29T14:42:50;23.90;99.90
29577;DHT22;16509;53.862;10.672;2023-07-29T14:45:15;23.90;99.90
29577;DHT22;16509;53.862;10.672;2023-07-29T14:47:41;23.80;99.90
29577;DHT22;16509;53.862;10.672;2023-07-29T14:50:06;23.80;99.90
29577;DHT22;16509;53.862;10.672;2023-07-29T14:52:32;23.90;99.90
29577;DHT22;16509;53.862;10.672;2023-07-29T14:54:57;24.00;99.90
29577;DHT22;16509;53.862;10.672;2023-07-29T14:57:23;23.90;99.90
29577;DHT22;16509;53.862;10.672;2023-07-29T14:59:49;23.90;99.90
29577;DHT22;16509;53.862;10.672;2023-07-29T15:02:14;24.10;99.90
29577;DHT22;16509;53.862;10.672;2023-07-29T15:04:40;24.00;99.90
29577;DHT22;16509;53.862;10.672;2023-07-29T15:07:05;24.00;99.90
29577;DHT22;16509;53.862;10.672;2023-07-29T15:09:31;24.00;99.90
29577;DHT22;16509;53.862;10.672;2023-07-29T15:11:56;24.20;99.90
29577;DHT22;16509;53.862;10.672;2023-07-29T15:14:22;23.80;99.90
29577;DHT22;16509;53.862;10.672;2023-07-29T15:16:47;23.80;99.90
29577;DHT22;16509;53.862;10.672;2023-07-29T15:19:13;23.70;99.90
29577;DHT22;16509;53.862;10.672;2023-07-29T15:21:39;23.80;99.90
29577;DHT22;16509;53.862;10.672;2023-07-29T15:24:05;24.50;99.90
29577;DHT22;16509;53.862;10.672;2023-07-29T15:26:30;23.70;99.90
29577;DHT22;16509;53.862;10.672;2023-07-29T15:28:57;23.70;99.90
29577;DHT22;16509;53.862;10.672;2023-07-29T15:31:23;23.70;99.90
29577;DHT22;16509;53.862;10.672;2023-07-29T15:33:49;23.80;99.90
29577;DHT22;16509;53.862;10.672;2023-07-29T15:36:14;23.70;99.90
29577;DHT22;16509;53.862;10.672;2023-07-29T15:38:40;23.70;99.90
29577;DHT22;16509;53.862;10.672;2023-07-29T15:41:05;23.90;99.90
29577;DHT22;16509;53.862;10.672;2023-07-29T15:43:31;23.50;99.90
29577;DHT22;16509;53.862;10.672;2023-07-29T15:45:56;23.50;99.90
29577;DHT22;16509;53.862;10.672;2023-07-29T15:48:22;23.50;99.90
29577;DHT22;16509;53.862;10.672;2023-07-29T15:50:48;23.50;99.90
29577;DHT22;16509;53.862;10.672;2023-07-29T15:53:13;23.60;99.90